Grand Forks, ND

5:14 PM CDT on July 23, 2016 (GMT -0500)
Grand Forks International | | Change Station

Elev 843 ft 47.95 °N, 97.18 °W | Updated 21 minutes ago

Light Thunderstorms and Rain
Light Thunderstorm Rain
70 °F
Feels Like 70 °F
N
7
Wind Variable Wind from NE

Today
High -- | Low -- °F
--% Chance of Precip.
Yesterday
High -- | Low -- °F
Precip. -- in
Pressure 29.73 in
Visibility 8.0 miles
Clouds Mostly Cloudy 7000 ft
Overcast 11000 ft
Dew Point 67 °F
Humidity 90%
Rainfall 0.92 in
Snow Depth Not available.
5:54 AM 9:14 PM
Waning Gibbous, 82% visible
METAR KGFK 232153Z COR 04006KT 8SM -TSRA BKN070CB OVC110 21/19 A2974 RMK AO2 TSB12 SLP068 VIS N-NE 3 OCNL LTGICCG E TS E MOV E P0021 T02110194
Pressure 29.73 in
Visibility 8.0 miles
Clouds Mostly Cloudy 7000 ft
Overcast 11000 ft
Dew Point 67 °F
Humidity 90%
Rainfall 0.92 in
Snow Depth Not available.
5:54 AM 9:14 PM
Waning Gibbous, 82% visible
METAR KGFK 232153Z COR 04006KT 8SM -TSRA BKN070CB OVC110 21/19 A2974 RMK AO2 TSB12 SLP068 VIS N-NE 3 OCNL LTGICCG E TS E MOV E P0021 T02110194

10-Day Weather Forecast

Almanac

Astronomy

Jul. 23, 2016 Rise Set
Actual Time
Civil Twilight
Nautical Twilight
Astronomical Twilight
Moon
Length of Visible Light
Length of Day
Tomorrow will be .
, % of the Moon is Illuminated

Today's Extremes

State Highs State Lows

Community

WunderPhotos

Upload Photos

1,926,940 photos uploaded!

WunderBlog® & News

Nearby

Air Quality

  Air Quality AQ Index Pollutant
Not available.

Snow Depth

Station Depth Elevation

Earthquake Activity

City Distance Mag. Time & Date
Minimum magnitude displayed is 2.5.

Coastal Water Temperatures

Place Temperature

Stations

Nearby Weather Stations

Station Location Temp. Windchill Dew Point Humidity Wind Precip. Elev Updated Type
                   

Watches & Warnings

There are currently no watches in effect.